FOL21 KCNM-KLAR
Flight info
| Callsign | FOL21 |
|---|---|
| Flight time | N/A |
| Altitude | 43000 |
| Route | YORUB Q37 PUB FQF DVV V575 LAR |
| Aircraft | C750/M-SBDE3FGHRWXY/S |
Departure
| Time | 2026-04-21 03:51 |
|---|---|
| Airport | Cavern City Air Terminal (KCNM) |
Arrival
| Time | N/A |
|---|---|
| Airport | Laramie Regional Airport (KLAR) |
| Time | Latitude | Longitude | Altitude | Speed | Heading |
|---|---|---|---|---|---|
| 2026-04-21 03:37 | 32.34682 | -104.25356 | 3244 ft | 0 kts | 65° |
| 2026-04-21 03:48 | 32.34678 | -104.25344 | 3243 ft | 3 kts | 153° |
| 2026-04-21 03:48 | 32.34668 | -104.25350 | 3244 ft | 3 kts | 226° |
| 2026-04-21 03:48 | 32.34658 | -104.25390 | 3245 ft | 5 kts | 242° |
| 2026-04-21 03:48 | 32.34578 | -104.25383 | 3246 ft | 23 kts | 161° |
| 2026-04-21 03:49 | 32.34438 | -104.25394 | 3248 ft | 19 kts | 217° |
| 2026-04-21 03:49 | 32.34304 | -104.25489 | 3246 ft | 25 kts | 208° |
| 2026-04-21 03:49 | 32.34153 | -104.25582 | 3247 ft | 26 kts | 207° |
| 2026-04-21 03:49 | 32.33997 | -104.25681 | 3251 ft | 23 kts | 209° |
| 2026-04-21 03:50 | 32.33866 | -104.25738 | 3254 ft | 15 kts | 152° |
| 2026-04-21 03:50 | 32.33793 | -104.25687 | 3255 ft | 0 kts | 221° |
| 2026-04-21 03:50 | 32.33475 | -104.26039 | 3261 ft | 120 kts | 223° |
| 2026-04-21 03:51 | 32.32728 | -104.26901 | 3446 ft | 162 kts | 223° |
| 2026-04-21 03:51 | 32.31949 | -104.27777 | 4336 ft | 158 kts | 217° |
| 2026-04-21 03:51 | 32.31072 | -104.28794 | 4768 ft | 193 kts | 221° |
| 2026-04-21 03:51 | 32.30057 | -104.30021 | 5249 ft | 224 kts | 221° |
| 2026-04-21 03:52 | 32.29099 | -104.31630 | 5614 ft | 264 kts | 245° |
| 2026-04-21 03:52 | 32.29049 | -104.33907 | 6189 ft | 291 kts | 283° |
| 2026-04-21 03:52 | 32.29877 | -104.36075 | 7313 ft | 293 kts | 301° |
| 2026-04-21 03:52 | 32.31403 | -104.37674 | 8372 ft | 298 kts | 331° |
| 2026-04-21 03:53 | 32.33388 | -104.38329 | 9483 ft | 301 kts | 357° |
| 2026-04-21 03:53 | 32.35471 | -104.38011 | 10478 ft | 304 kts | 11° |
| 2026-04-21 03:53 | 32.37599 | -104.37470 | 11004 ft | 323 kts | 12° |
| 2026-04-21 03:53 | 32.39820 | -104.36885 | 11850 ft | 327 kts | 11° |
| 2026-04-21 03:54 | 32.42046 | -104.36323 | 12804 ft | 329 kts | 10° |
| 2026-04-21 03:54 | 32.44300 | -104.35765 | 13667 ft | 333 kts | 10° |
| 2026-04-21 03:54 | 32.46578 | -104.35190 | 14475 ft | 337 kts | 11° |
| 2026-04-21 03:54 | 32.48887 | -104.34600 | 15255 ft | 342 kts | 11° |
| 2026-04-21 03:55 | 32.51194 | -104.34015 | 16023 ft | 346 kts | 10° |
| 2026-04-21 03:55 | 32.53560 | -104.33422 | 16818 ft | 350 kts | 10° |
| 2026-04-21 03:55 | 32.55959 | -104.32817 | 17616 ft | 354 kts | 10° |
| 2026-04-21 03:55 | 32.58386 | -104.32199 | 18410 ft | 359 kts | 10° |
| 2026-04-21 03:56 | 32.60838 | -104.31577 | 19208 ft | 363 kts | 10° |
| 2026-04-21 03:56 | 32.63319 | -104.30948 | 20016 ft | 367 kts | 10° |
| 2026-04-21 03:56 | 32.65827 | -104.30313 | 20817 ft | 371 kts | 10° |
| 2026-04-21 03:56 | 32.68367 | -104.29670 | 21600 ft | 375 kts | 10° |
| 2026-04-21 03:57 | 32.70934 | -104.29018 | 22364 ft | 379 kts | 10° |
| 2026-04-21 03:57 | 32.73530 | -104.28357 | 23125 ft | 383 kts | 10° |
| 2026-04-21 03:57 | 32.76147 | -104.27692 | 23842 ft | 387 kts | 9° |
| 2026-04-21 03:57 | 32.78800 | -104.27018 | 24552 ft | 391 kts | 9° |
| 2026-04-21 03:58 | 32.81479 | -104.26336 | 25223 ft | 396 kts | 9° |
| 2026-04-21 03:58 | 32.84188 | -104.25646 | 25869 ft | 401 kts | 9° |
| 2026-04-21 03:58 | 32.86927 | -104.24948 | 26525 ft | 405 kts | 9° |
| 2026-04-21 03:58 | 32.89696 | -104.24241 | 27145 ft | 409 kts | 9° |
| 2026-04-21 03:59 | 32.92504 | -104.23560 | 27738 ft | 412 kts | 7° |
| 2026-04-21 03:59 | 32.95371 | -104.23447 | 28266 ft | 413 kts | 355° |
| 2026-04-21 03:59 | 32.98251 | -104.23590 | 28922 ft | 416 kts | 355° |
| 2026-04-21 04:00 | 33.03094 | -104.23767 | 29867 ft | 423 kts | 355° |
| 2026-04-21 04:00 | 33.06051 | -104.23879 | 30449 ft | 426 kts | 355° |
| 2026-04-21 04:00 | 33.09021 | -104.24009 | 30974 ft | 430 kts | 355° |
| 2026-04-21 04:00 | 33.12033 | -104.24137 | 31471 ft | 435 kts | 355° |
| 2026-04-21 04:01 | 33.15057 | -104.24253 | 31974 ft | 438 kts | 355° |
| 2026-04-21 04:01 | 33.18122 | -104.24373 | 32467 ft | 443 kts | 355° |
| 2026-04-21 04:01 | 33.21213 | -104.24500 | 32949 ft | 446 kts | 354° |
| 2026-04-21 04:01 | 33.24331 | -104.24629 | 33402 ft | 450 kts | 354° |
| 2026-04-21 04:02 | 33.27477 | -104.24756 | 33852 ft | 454 kts | 354° |
| 2026-04-21 04:02 | 33.30660 | -104.24880 | 34286 ft | 459 kts | 354° |
| 2026-04-21 04:02 | 33.33862 | -104.25012 | 34763 ft | 461 kts | 354° |
| 2026-04-21 04:02 | 33.37063 | -104.25143 | 35379 ft | 460 kts | 354° |
| 2026-04-21 04:03 | 33.40260 | -104.25272 | 35953 ft | 460 kts | 354° |
| 2026-04-21 04:03 | 33.43461 | -104.25402 | 36474 ft | 461 kts | 354° |
| 2026-04-21 04:03 | 33.46666 | -104.25532 | 36978 ft | 462 kts | 354° |
| 2026-04-21 04:03 | 33.49879 | -104.25662 | 37617 ft | 459 kts | 354° |
| 2026-04-21 04:04 | 33.53064 | -104.25791 | 38245 ft | 458 kts | 353° |
| 2026-04-21 04:04 | 33.56243 | -104.25920 | 38835 ft | 457 kts | 353° |
| 2026-04-21 04:04 | 33.59424 | -104.26052 | 39304 ft | 458 kts | 353° |
| 2026-04-21 04:04 | 33.62616 | -104.26184 | 39758 ft | 460 kts | 353° |
| 2026-04-21 04:05 | 33.65773 | -104.26311 | 40256 ft | 460 kts | 353° |
| 2026-04-21 04:05 | 33.68972 | -104.26440 | 40755 ft | 460 kts | 353° |
| 2026-04-21 04:05 | 33.72182 | -104.26572 | 41196 ft | 462 kts | 353° |
| 2026-04-21 04:05 | 33.75398 | -104.26705 | 41650 ft | 463 kts | 353° |
| 2026-04-21 04:06 | 33.78616 | -104.26836 | 42128 ft | 463 kts | 353° |
| 2026-04-21 04:06 | 33.81830 | -104.26966 | 42561 ft | 463 kts | 353° |
| 2026-04-21 04:06 | 33.85054 | -104.27099 | 42982 ft | 462 kts | 353° |
| 2026-04-21 04:06 | 33.88279 | -104.27233 | 43191 ft | 468 kts | 352° |
| 2026-04-21 04:07 | 33.91565 | -104.27373 | 43175 ft | 478 kts | 353° |
| 2026-04-21 04:07 | 33.98354 | -104.27649 | 43192 ft | 497 kts | 353° |
| 2026-04-21 04:08 | 34.05399 | -104.27939 | 43193 ft | 515 kts | 353° |
| 2026-04-21 04:08 | 34.12642 | -104.28235 | 43198 ft | 523 kts | 353° |
| 2026-04-21 04:09 | 34.19912 | -104.28533 | 43188 ft | 523 kts | 353° |
| 2026-04-21 04:09 | 34.27182 | -104.28836 | 43192 ft | 523 kts | 353° |
| 2026-04-21 04:10 | 34.34458 | -104.29135 | 43186 ft | 522 kts | 353° |
| 2026-04-21 04:10 | 34.41710 | -104.29438 | 43181 ft | 522 kts | 353° |
| 2026-04-21 04:11 | 34.48974 | -104.29738 | 43185 ft | 522 kts | 353° |
| 2026-04-21 04:11 | 34.56240 | -104.30042 | 43177 ft | 522 kts | 353° |
| 2026-04-21 04:12 | 34.63500 | -104.30345 | 43169 ft | 522 kts | 353° |
| 2026-04-21 04:12 | 34.70761 | -104.30649 | 43164 ft | 522 kts | 353° |
| 2026-04-21 04:13 | 34.78027 | -104.30954 | 43178 ft | 522 kts | 353° |
| 2026-04-21 04:13 | 34.85281 | -104.31258 | 43178 ft | 521 kts | 353° |
| 2026-04-21 04:14 | 34.92482 | -104.31558 | 43167 ft | 521 kts | 353° |
| 2026-04-21 04:14 | 34.99730 | -104.31768 | 43167 ft | 521 kts | 354° |
| 2026-04-21 04:15 | 35.06954 | -104.32015 | 43165 ft | 521 kts | 353° |
| 2026-04-21 04:15 | 35.14211 | -104.32246 | 43182 ft | 521 kts | 354° |
| 2026-04-21 04:16 | 35.21462 | -104.32484 | 43178 ft | 521 kts | 353° |
| 2026-04-21 04:16 | 35.28711 | -104.32722 | 43186 ft | 521 kts | 354° |
| 2026-04-21 04:17 | 35.35965 | -104.32957 | 43181 ft | 522 kts | 353° |
| 2026-04-21 04:17 | 35.43215 | -104.33198 | 43175 ft | 521 kts | 353° |
| 2026-04-21 04:18 | 35.50464 | -104.33434 | 43193 ft | 521 kts | 354° |
| 2026-04-21 04:18 | 35.57709 | -104.33673 | 43193 ft | 521 kts | 354° |
| 2026-04-21 04:19 | 35.64660 | -104.33902 | 43197 ft | 521 kts | 354° |
| 2026-04-21 04:19 | 35.71913 | -104.34141 | 43191 ft | 520 kts | 353° |
| 2026-04-21 04:20 | 35.79155 | -104.34382 | 43198 ft | 521 kts | 354° |
| 2026-04-21 04:20 | 35.86402 | -104.34621 | 43215 ft | 521 kts | 354° |
| 2026-04-21 04:21 | 35.93654 | -104.34863 | 43199 ft | 521 kts | 353° |
| 2026-04-21 04:21 | 36.00898 | -104.35104 | 43201 ft | 521 kts | 354° |
| 2026-04-21 04:22 | 36.08140 | -104.35344 | 43202 ft | 521 kts | 353° |
| 2026-04-21 04:22 | 36.15392 | -104.35587 | 43189 ft | 521 kts | 353° |
| 2026-04-21 04:23 | 36.22582 | -104.35828 | 43192 ft | 521 kts | 353° |
| 2026-04-21 04:23 | 36.29878 | -104.36072 | 43187 ft | 521 kts | 354° |
| 2026-04-21 04:24 | 36.37064 | -104.36313 | 43187 ft | 520 kts | 354° |
| 2026-04-21 04:24 | 36.44297 | -104.36557 | 43190 ft | 520 kts | 354° |
| 2026-04-21 04:25 | 36.51525 | -104.36800 | 43192 ft | 519 kts | 354° |
| 2026-04-21 04:25 | 36.58739 | -104.37045 | 43187 ft | 519 kts | 354° |
| 2026-04-21 04:26 | 36.65960 | -104.37288 | 43189 ft | 519 kts | 354° |
| 2026-04-21 04:26 | 36.73168 | -104.37533 | 43192 ft | 519 kts | 354° |
| 2026-04-21 04:27 | 36.80387 | -104.37778 | 43195 ft | 519 kts | 354° |
| 2026-04-21 04:27 | 36.87531 | -104.38020 | 43180 ft | 519 kts | 354° |
| 2026-04-21 04:28 | 36.94743 | -104.38267 | 43176 ft | 518 kts | 354° |
| 2026-04-21 04:28 | 37.01957 | -104.38512 | 43148 ft | 518 kts | 354° |
| 2026-04-21 04:29 | 37.09152 | -104.38759 | 43130 ft | 518 kts | 354° |
| 2026-04-21 04:29 | 37.16353 | -104.39006 | 43105 ft | 517 kts | 354° |
| 2026-04-21 04:30 | 37.23538 | -104.39254 | 43102 ft | 516 kts | 354° |
| 2026-04-21 04:30 | 37.30718 | -104.39499 | 43105 ft | 516 kts | 354° |
| 2026-04-21 04:31 | 37.37908 | -104.39748 | 43111 ft | 517 kts | 354° |
| 2026-04-21 04:31 | 37.43875 | -104.39954 | 43105 ft | 517 kts | 354° |
| 2026-04-21 04:32 | 37.51345 | -104.40213 | 43108 ft | 516 kts | 354° |
| 2026-04-21 04:32 | 37.58478 | -104.40460 | 43141 ft | 516 kts | 354° |
| 2026-04-21 04:33 | 37.65664 | -104.40710 | 43147 ft | 517 kts | 354° |
| 2026-04-21 04:33 | 37.71689 | -104.40919 | 43149 ft | 517 kts | 354° |
| 2026-04-21 04:34 | 37.79519 | -104.41193 | 43101 ft | 515 kts | 354° |
| 2026-04-21 04:34 | 37.86679 | -104.41442 | 43100 ft | 516 kts | 354° |
| 2026-04-21 04:35 | 37.93168 | -104.41669 | 43096 ft | 515 kts | 354° |
| 2026-04-21 04:35 | 38.00356 | -104.41921 | 43093 ft | 515 kts | 354° |
| 2026-04-21 04:36 | 38.07517 | -104.42173 | 43101 ft | 515 kts | 354° |
| 2026-04-21 04:36 | 38.14675 | -104.42426 | 43117 ft | 515 kts | 354° |
| 2026-04-21 04:37 | 38.21783 | -104.42675 | 43111 ft | 515 kts | 354° |
| 2026-04-21 04:37 | 38.28889 | -104.42931 | 43101 ft | 514 kts | 353° |
| 2026-04-21 04:38 | 38.35961 | -104.43815 | 43106 ft | 509 kts | 349° |
| 2026-04-21 04:38 | 38.43012 | -104.44788 | 43106 ft | 511 kts | 350° |
| 2026-04-21 04:39 | 38.48509 | -104.45501 | 43102 ft | 510 kts | 349° |
| 2026-04-21 04:39 | 38.55550 | -104.46483 | 43103 ft | 509 kts | 349° |
| 2026-04-21 04:40 | 38.61729 | -104.47303 | 43102 ft | 509 kts | 349° |
| 2026-04-21 04:40 | 38.68764 | -104.48270 | 43121 ft | 507 kts | 349° |
| 2026-04-21 04:41 | 38.75789 | -104.49220 | 43153 ft | 508 kts | 349° |
| 2026-04-21 04:41 | 38.82822 | -104.50183 | 43170 ft | 507 kts | 349° |
| 2026-04-21 04:42 | 38.89842 | -104.51143 | 43183 ft | 509 kts | 349° |
| 2026-04-21 04:42 | 38.96774 | -104.52084 | 42143 ft | 487 kts | 349° |
| 2026-04-21 04:42 | 39.00074 | -104.52539 | 41043 ft | 467 kts | 350° |
| 2026-04-21 04:43 | 39.03242 | -104.52978 | 39941 ft | 450 kts | 351° |
| 2026-04-21 04:43 | 39.06310 | -104.53400 | 38917 ft | 436 kts | 352° |
| 2026-04-21 04:43 | 39.09251 | -104.53803 | 38551 ft | 419 kts | 352° |
| 2026-04-21 04:43 | 39.12167 | -104.54207 | 37993 ft | 425 kts | 352° |
| 2026-04-21 04:44 | 39.15087 | -104.54613 | 37435 ft | 430 kts | 352° |
| 2026-04-21 04:44 | 39.18117 | -104.55029 | 36852 ft | 434 kts | 352° |
| 2026-04-21 04:44 | 39.21129 | -104.55440 | 36307 ft | 436 kts | 352° |
| 2026-04-21 04:44 | 39.24150 | -104.55858 | 35768 ft | 438 kts | 352° |